Time;durP1;ratioP1;P1;durP2;ratioP2;P2;SDS_P1;SDS_P2;PMS_P1;PMS_P2;Temp;Humidity;BMP_temperature;BMP_pressure;BME280_temperature;BME280_humidity;BME280_pressure;Samples;Min_cycle;Max_cycle;Signal;HPM_P1;HPM_P2
2021/12/21 00:02:03;;;;;;;69.10;29.10;;;;;;;;;;4990743;28;20271;-65
2021/12/21 00:04:29;;;;;;;65.72;28.85;;;;;;;;;;4992064;28;20030;-65
2021/12/21 00:06:55;;;;;;;61.65;27.83;;;;;;;;;;4992747;28;20018;-65
2021/12/21 00:09:21;;;;;;;71.03;29.38;;;;;;;;;;4992318;28;20153;-65
2021/12/21 00:11:48;;;;;;;65.65;27.98;;;;;;;;;;4995458;28;20046;-65
2021/12/21 00:15:01;;;;;;;64.20;28.30;;;;;;;;;;4996117;28;20030;-65
2021/12/21 00:19:49;;;;;;;73.00;28.87;;;;;;;;;;4996153;28;20133;-65
2021/12/21 00:25:00;;;;;;;62.08;26.77;;;;;;;;;;4996265;28;20389;-65
2021/12/21 00:27:26;;;;;;;60.30;26.88;;;;;;;;;;4995937;28;20045;-65
2021/12/21 00:29:52;;;;;;;64.93;26.67;;;;;;;;;;4996253;28;20108;-65
2021/12/21 00:32:19;;;;;;;62.60;27.52;;;;;;;;;;4995498;28;20030;-65
2021/12/21 00:34:45;;;;;;;61.78;26.10;;;;;;;;;;4995837;28;20045;-65
2021/12/21 00:37:11;;;;;;;65.38;27.65;;;;;;;;;;4995816;28;20022;-65
2021/12/21 00:39:37;;;;;;;66.35;28.58;;;;;;;;;;4995801;28;20030;-65
2021/12/21 00:42:04;;;;;;;57.83;25.70;;;;;;;;;;4995835;28;20026;-66
2021/12/21 00:44:30;;;;;;;61.17;26.65;;;;;;;;;;4995217;28;20023;-65
2021/12/21 00:46:56;;;;;;;68.60;29.40;;;;;;;;;;4995970;28;20022;-65
2021/12/21 00:49:23;;;;;;;60.65;26.70;;;;;;;;;;4995422;28;20030;-65
2021/12/21 00:51:49;;;;;;;62.72;27.67;;;;;;;;;;4995931;28;20022;-65
2021/12/21 00:54:17;;;;;;;60.80;26.05;;;;;;;;;;4995358;28;20085;-65
2021/12/21 00:56:43;;;;;;;58.25;26.10;;;;;;;;;;4995480;28;20398;-65
2021/12/21 00:59:09;;;;;;;53.65;23.92;;;;;;;;;;4995331;28;20026;-65
2021/12/21 01:01:36;;;;;;;57.53;24.83;;;;;;;;;;4995141;28;20077;-65
2021/12/21 01:04:07;;;;;;;58.85;23.90;;;;;;;;;;4995706;28;20631;-65
2021/12/21 01:06:41;;;;;;;59.72;25.02;;;;;;;;;;4995127;28;20401;-65
2021/12/21 01:12:02;;;;;;;53.05;23.95;;;;;;;;;;4954398;29;20054;-65
2021/12/21 01:17:12;;;;;;;52.45;22.77;;;;;;;;;;4964393;28;20575;-65
2021/12/21 01:32:40;;;;;;;57.63;24.05;;;;;;;;;;4954132;29;20038;-65
2021/12/21 01:40:41;;;;;;;55.97;23.23;;;;;;;;;;4915797;29;20095;-65
2021/12/21 01:51:03;;;;;;;54.42;24.17;;;;;;;;;;4934919;29;20131;-65
2021/12/21 01:53:30;;;;;;;52.60;21.95;;;;;;;;;;4934060;29;20083;-65
2021/12/21 01:55:56;;;;;;;55.58;23.27;;;;;;;;;;4934817;29;20047;-65
2021/12/21 01:58:22;;;;;;;52.13;22.33;;;;;;;;;;4934135;29;20038;-65
2021/12/21 02:00:48;;;;;;;50.30;22.58;;;;;;;;;;4933915;29;20036;-65
2021/12/21 02:03:16;;;;;;;53.53;22.92;;;;;;;;;;4934754;29;20032;-65
2021/12/21 02:05:43;;;;;;;50.35;21.80;;;;;;;;;;4934261;29;20054;-65
2021/12/21 02:08:09;;;;;;;50.42;23.20;;;;;;;;;;4934565;29;20502;-65
2021/12/21 02:10:35;;;;;;;48.33;20.25;;;;;;;;;;4933927;29;20459;-65
2021/12/21 02:13:02;;;;;;;45.00;21.30;;;;;;;;;;4943350;28;20042;-65
2021/12/21 02:15:28;;;;;;;47.55;21.42;;;;;;;;;;4989496;28;20126;-65
2021/12/21 02:18:23;;;;;;;48.95;21.48;;;;;;;;;;4974463;28;20059;-65
2021/12/21 02:20:56;;;;;;;46.42;19.27;;;;;;;;;;4974253;28;20033;-65
2021/12/21 02:23:30;;;;;;;48.33;20.63;;;;;;;;;;4974526;28;20035;-65
2021/12/21 02:31:08;;;;;;;47.95;20.40;;;;;;;;;;4974338;28;20514;-65
2021/12/21 02:33:35;;;;;;;43.72;20.60;;;;;;;;;;4972441;28;20038;-65
2021/12/21 02:36:01;;;;;;;47.70;21.73;;;;;;;;;;4988761;28;20057;-65
2021/12/21 02:38:28;;;;;;;46.25;20.83;;;;;;;;;;4993697;28;20034;-65
2021/12/21 02:40:54;;;;;;;44.20;20.42;;;;;;;;;;4993309;28;20474;-65
2021/12/21 02:43:20;;;;;;;49.63;20.17;;;;;;;;;;5008965;28;20460;-65
2021/12/21 02:45:46;;;;;;;45.10;21.10;;;;;;;;;;4993260;28;20026;-65
2021/12/21 02:48:13;;;;;;;50.20;21.33;;;;;;;;;;4993709;28;20395;-65
2021/12/21 02:50:40;;;;;;;47.58;21.27;;;;;;;;;;4993406;28;20042;-65
2021/12/21 02:53:08;;;;;;;53.03;22.92;;;;;;;;;;4992282;28;20364;-65
2021/12/21 02:55:34;;;;;;;46.13;21.13;;;;;;;;;;4990648;28;20034;-65
2021/12/21 02:58:01;;;;;;;43.10;19.77;;;;;;;;;;4993390;28;20026;-65
2021/12/21 03:00:28;;;;;;;45.20;20.65;;;;;;;;;;4993217;28;20026;-65
2021/12/21 03:02:54;;;;;;;46.15;20.17;;;;;;;;;;4993181;28;20034;-65
2021/12/21 03:05:21;;;;;;;45.38;21.35;;;;;;;;;;4993383;28;20018;-65
2021/12/21 03:10:32;;;;;;;48.75;21.83;;;;;;;;;;4981973;28;20089;-65
2021/12/21 03:15:27;;;;;;;48.85;22.17;;;;;;;;;;4992903;28;20088;-65
2021/12/21 03:17:54;;;;;;;49.05;22.02;;;;;;;;;;4991682;28;20030;-65
2021/12/21 03:20:20;;;;;;;48.65;21.90;;;;;;;;;;4992648;28;20033;-65
2021/12/21 03:22:47;;;;;;;52.05;22.25;;;;;;;;;;4992474;28;20025;-65
2021/12/21 03:25:13;;;;;;;50.15;22.23;;;;;;;;;;4992452;28;20018;-65
2021/12/21 03:27:39;;;;;;;47.25;22.17;;;;;;;;;;4992073;28;20034;-65
2021/12/21 03:30:07;;;;;;;52.92;22.80;;;;;;;;;;4992694;28;20390;-65
2021/12/21 03:32:33;;;;;;;45.50;21.73;;;;;;;;;;4992443;28;20026;-65
2021/12/21 03:35:00;;;;;;;48.50;21.05;;;;;;;;;;4992282;28;20046;-65
2021/12/21 03:37:26;;;;;;;47.08;21.85;;;;;;;;;;5007741;28;20410;-65
2021/12/21 03:39:54;;;;;;;49.95;20.48;;;;;;;;;;4991921;28;20046;-65
2021/12/21 03:42:20;;;;;;;48.03;21.02;;;;;;;;;;4992784;28;20379;-65
2021/12/21 03:44:47;;;;;;;50.20;23.05;;;;;;;;;;4991956;28;20041;-65
2021/12/21 03:47:16;;;;;;;52.92;21.33;;;;;;;;;;4991357;28;20101;-65
2021/12/21 03:52:15;;;;;;;45.13;21.08;;;;;;;;;;4991752;28;20037;-65
2021/12/21 03:54:43;;;;;;;49.92;22.20;;;;;;;;;;4991926;28;20035;-65
2021/12/21 03:57:09;;;;;;;48.58;21.95;;;;;;;;;;4992721;28;20098;-65
2021/12/21 03:59:35;;;;;;;52.75;24.08;;;;;;;;;;4991986;28;20044;-65
2021/12/21 04:02:02;;;;;;;49.92;24.30;;;;;;;;;;4992343;28;20030;-65
2021/12/21 04:04:28;;;;;;;49.88;23.88;;;;;;;;;;4992641;28;20415;-65
2021/12/21 04:06:54;;;;;;;49.13;25.00;;;;;;;;;;4991952;28;20061;-65
2021/12/21 04:09:20;;;;;;;53.25;23.70;;;;;;;;;;4992187;28;20031;-65
2021/12/21 04:11:47;;;;;;;48.72;22.58;;;;;;;;;;4991384;28;20080;-65
2021/12/21 04:14:16;;;;;;;51.05;23.13;;;;;;;;;;4992450;28;20034;-65
2021/12/21 04:16:42;;;;;;;49.15;24.67;;;;;;;;;;4992003;28;20429;-65
2021/12/21 04:19:08;;;;;;;54.13;24.55;;;;;;;;;;4992256;28;20035;-65
2021/12/21 04:21:34;;;;;;;51.45;23.67;;;;;;;;;;4992518;28;20402;-65
2021/12/21 04:24:01;;;;;;;55.40;25.65;;;;;;;;;;4991571;28;20518;-65
2021/12/21 04:26:27;;;;;;;52.97;25.55;;;;;;;;;;4992416;28;20022;-65
2021/12/21 04:28:53;;;;;;;50.45;24.75;;;;;;;;;;4991889;28;20038;-65
2021/12/21 04:31:19;;;;;;;45.58;22.95;;;;;;;;;;4992235;28;20034;-65
2021/12/21 04:33:46;;;;;;;49.50;24.23;;;;;;;;;;4991965;28;20375;-65
2021/12/21 04:36:13;;;;;;;50.97;25.08;;;;;;;;;;4992363;28;20075;-65
2021/12/21 04:38:43;;;;;;;53.38;25.90;;;;;;;;;;4991822;28;20423;-65
2021/12/21 04:41:16;;;;;;;50.72;25.40;;;;;;;;;;4992080;28;20033;-65
2021/12/21 04:43:43;;;;;;;53.95;25.00;;;;;;;;;;4991637;28;20049;-65
2021/12/21 04:46:10;;;;;;;52.95;25.98;;;;;;;;;;4991949;28;20011;-65
2021/12/21 04:48:36;;;;;;;52.22;25.70;;;;;;;;;;4992038;28;20030;-65
2021/12/21 04:51:03;;;;;;;53.47;25.63;;;;;;;;;;4991554;28;20026;-65
2021/12/21 04:53:29;;;;;;;53.13;25.63;;;;;;;;;;4992257;28;20031;-65
2021/12/21 04:55:56;;;;;;;49.90;25.27;;;;;;;;;;4991414;28;20117;-65
2021/12/21 04:58:22;;;;;;;58.38;26.80;;;;;;;;;;4995569;28;20049;-65
2021/12/21 05:00:49;;;;;;;57.63;27.67;;;;;;;;;;4995582;28;20057;-65
2021/12/21 05:03:15;;;;;;;52.35;25.95;;;;;;;;;;4995505;28;20030;-65
2021/12/21 05:05:42;;;;;;;51.28;25.27;;;;;;;;;;4995145;28;20297;-65
2021/12/21 05:08:19;;;;;;;52.15;23.38;;;;;;;;;;4995661;28;20030;-65
2021/12/21 05:10:55;;;;;;;53.53;25.35;;;;;;;;;;4994630;28;20073;-65
2021/12/21 05:13:23;;;;;;;56.25;25.73;;;;;;;;;;4995506;28;20034;-65
2021/12/21 05:15:49;;;;;;;47.95;23.85;;;;;;;;;;4995451;28;20031;-65
2021/12/21 05:18:16;;;;;;;48.75;24.67;;;;;;;;;;4995530;28;20116;-65
2021/12/21 05:20:42;;;;;;;49.60;23.52;;;;;;;;;;4995398;28;20386;-65
2021/12/21 05:23:09;;;;;;;53.03;24.35;;;;;;;;;;4995358;28;20018;-65
2021/12/21 05:25:35;;;;;;;53.97;26.95;;;;;;;;;;4995280;28;20034;-65
2021/12/21 05:28:01;;;;;;;53.10;26.00;;;;;;;;;;4995138;28;20026;-65
2021/12/21 05:30:27;;;;;;;54.03;24.40;;;;;;;;;;4995039;28;20045;-65
2021/12/21 05:32:54;;;;;;;47.70;23.58;;;;;;;;;;4995146;28;20034;-65
2021/12/21 05:35:22;;;;;;;49.45;24.60;;;;;;;;;;4994803;28;20050;-65
2021/12/21 05:37:50;;;;;;;51.88;24.45;;;;;;;;;;4995165;28;20085;-65
2021/12/21 05:40:18;;;;;;;53.15;24.85;;;;;;;;;;4995103;28;20022;-65
2021/12/21 05:42:48;;;;;;;48.33;25.40;;;;;;;;;;4994833;28;20486;-65
2021/12/21 05:45:15;;;;;;;53.63;26.20;;;;;;;;;;4995212;28;20467;-65
2021/12/21 05:47:41;;;;;;;54.00;24.98;;;;;;;;;;4995236;28;20053;-65
2021/12/21 05:50:10;;;;;;;46.75;24.20;;;;;;;;;;4994418;28;20026;-65
2021/12/21 05:52:36;;;;;;;49.00;23.50;;;;;;;;;;5010279;28;20033;-65
2021/12/21 05:55:03;;;;;;;53.35;23.65;;;;;;;;;;4994687;28;20034;-65
2021/12/21 05:57:29;;;;;;;49.95;25.00;;;;;;;;;;4994756;28;20372;-65
2021/12/21 05:59:55;;;;;;;49.40;25.05;;;;;;;;;;4994724;28;20080;-65
2021/12/21 06:02:21;;;;;;;52.67;26.75;;;;;;;;;;4994869;28;20035;-64
2021/12/21 06:04:47;;;;;;;50.97;25.38;;;;;;;;;;4994359;28;20019;-64
2021/12/21 06:07:14;;;;;;;59.15;27.33;;;;;;;;;;4993030;28;20041;-65
2021/12/21 06:09:42;;;;;;;51.97;25.52;;;;;;;;;;4992732;28;20548;-65
2021/12/21 06:12:36;;;;;;;48.30;23.90;;;;;;;;;;4967900;28;20038;-65
2021/12/21 06:23:30;;;;;;;55.40;24.58;;;;;;;;;;4993660;28;20068;-65
2021/12/21 06:25:59;;;;;;;57.28;26.48;;;;;;;;;;4982662;28;20038;-65
2021/12/21 06:28:25;;;;;;;52.45;24.67;;;;;;;;;;4993078;28;20042;-65
2021/12/21 06:30:51;;;;;;;65.25;29.50;;;;;;;;;;4992975;28;20129;-64
2021/12/21 06:33:18;;;;;;;60.05;28.02;;;;;;;;;;4992823;28;20018;-65
2021/12/21 06:35:44;;;;;;;63.17;29.40;;;;;;;;;;4992364;28;20086;-64
2021/12/21 06:38:11;;;;;;;59.80;28.38;;;;;;;;;;4987303;28;20034;-65
2021/12/21 06:40:37;;;;;;;54.97;26.17;;;;;;;;;;4993720;28;20023;-65
2021/12/21 06:43:04;;;;;;;53.58;24.95;;;;;;;;;;4991544;28;20032;-64
2021/12/21 06:53:27;;;;;;;52.17;24.08;;;;;;;;;;4988623;28;20108;-64
2021/12/21 06:55:53;;;;;;;51.15;24.50;;;;;;;;;;4991666;28;20035;-64
2021/12/21 06:58:19;;;;;;;51.40;24.30;;;;;;;;;;4991312;28;20124;-64
2021/12/21 07:00:46;;;;;;;52.40;25.23;;;;;;;;;;4993322;28;20029;-64
2021/12/21 07:03:13;;;;;;;49.88;23.88;;;;;;;;;;4991648;28;20034;-64
2021/12/21 07:05:40;;;;;;;52.72;27.77;;;;;;;;;;4992682;28;20019;-64
2021/12/21 07:08:09;;;;;;;54.70;25.80;;;;;;;;;;4992941;28;20045;-64
2021/12/21 07:10:38;;;;;;;47.67;23.80;;;;;;;;;;4992982;28;20022;-64
2021/12/21 07:18:34;;;;;;;53.38;22.20;;;;;;;;;;5001271;28;20031;-64
2021/12/21 07:21:01;;;;;;;53.75;24.23;;;;;;;;;;4985941;28;20427;-64
2021/12/21 07:23:27;;;;;;;50.28;24.08;;;;;;;;;;4989615;28;20029;-64
2021/12/21 07:25:53;;;;;;;48.35;21.83;;;;;;;;;;4991710;28;20026;-64
2021/12/21 07:28:19;;;;;;;48.50;22.90;;;;;;;;;;4987492;28;20108;-64
2021/12/21 07:30:47;;;;;;;48.38;22.70;;;;;;;;;;4990838;28;20037;-64
2021/12/21 07:33:14;;;;;;;54.95;24.13;;;;;;;;;;4991007;28;20026;-64
2021/12/21 07:35:40;;;;;;;50.45;24.02;;;;;;;;;;4990687;28;20125;-64
2021/12/21 07:38:06;;;;;;;45.58;21.08;;;;;;;;;;4990516;28;20042;-64
2021/12/21 07:40:33;;;;;;;46.05;22.73;;;;;;;;;;4990569;28;20026;-64
2021/12/21 07:43:00;;;;;;;41.65;21.90;;;;;;;;;;4991388;28;20049;-64
2021/12/21 07:45:27;;;;;;;52.97;22.25;;;;;;;;;;4990443;28;20442;-65
2021/12/21 07:47:53;;;;;;;47.60;23.90;;;;;;;;;;4991597;28;20038;-65
2021/12/21 07:50:20;;;;;;;45.90;22.95;;;;;;;;;;4991951;28;20053;-65
2021/12/21 07:52:46;;;;;;;49.08;23.00;;;;;;;;;;4991674;28;20025;-64
2021/12/21 07:55:12;;;;;;;50.95;23.60;;;;;;;;;;4990849;28;20046;-65
2021/12/21 07:57:38;;;;;;;47.60;22.63;;;;;;;;;;4989465;28;20031;-65
2021/12/21 08:00:06;;;;;;;51.95;23.80;;;;;;;;;;4989908;28;20057;-65
2021/12/21 08:02:39;;;;;;;57.40;23.52;;;;;;;;;;4989935;28;20058;-65
2021/12/21 08:05:07;;;;;;;44.17;20.90;;;;;;;;;;4991194;28;20449;-65
2021/12/21 08:07:38;;;;;;;45.88;21.48;;;;;;;;;;4991224;28;20039;-65
2021/12/21 08:10:18;;;;;;;45.58;19.77;;;;;;;;;;4991276;28;20546;-65
2021/12/21 08:12:44;;;;;;;50.03;22.30;;;;;;;;;;4990315;28;20080;-64
2021/12/21 08:15:11;;;;;;;53.08;24.40;;;;;;;;;;4989664;28;20078;-65
2021/12/21 08:17:37;;;;;;;53.30;24.33;;;;;;;;;;4990430;28;20030;-64
2021/12/21 08:20:03;;;;;;;53.85;24.15;;;;;;;;;;4991641;28;20453;-64
2021/12/21 08:22:29;;;;;;;51.47;24.40;;;;;;;;;;4989658;28;20026;-64
2021/12/21 08:24:56;;;;;;;55.40;23.55;;;;;;;;;;4991005;28;20426;-64
2021/12/21 08:27:22;;;;;;;54.30;24.98;;;;;;;;;;4991197;28;20495;-64
2021/12/21 08:29:48;;;;;;;49.90;24.35;;;;;;;;;;4989711;28;20034;-65
2021/12/21 08:32:14;;;;;;;49.83;23.27;;;;;;;;;;4990312;28;20030;-65
2021/12/21 08:34:40;;;;;;;56.17;24.83;;;;;;;;;;4991706;28;20367;-65
2021/12/21 08:37:07;;;;;;;53.78;24.45;;;;;;;;;;4991916;28;20536;-65
2021/12/21 08:39:39;;;;;;;54.80;23.83;;;;;;;;;;4992228;28;20231;-65
2021/12/21 08:42:06;;;;;;;55.13;23.43;;;;;;;;;;4991614;28;20026;-64
2021/12/21 08:44:32;;;;;;;55.55;25.27;;;;;;;;;;4994876;28;20773;-64
2021/12/21 08:46:58;;;;;;;66.03;26.92;;;;;;;;;;4990889;28;20049;-64
2021/12/21 08:49:25;;;;;;;57.72;26.95;;;;;;;;;;4993604;28;20081;-65
2021/12/21 08:51:51;;;;;;;56.22;26.45;;;;;;;;;;4993706;28;20034;-65
2021/12/21 08:54:17;;;;;;;60.72;26.90;;;;;;;;;;4992092;28;20026;-65
2021/12/21 08:56:45;;;;;;;59.03;26.33;;;;;;;;;;4993734;28;20042;-65
2021/12/21 08:59:13;;;;;;;55.50;24.75;;;;;;;;;;4993841;28;20019;-65
2021/12/21 09:01:39;;;;;;;55.42;25.02;;;;;;;;;;4999761;28;20022;-65
2021/12/21 09:04:05;;;;;;;54.38;24.30;;;;;;;;;;4994321;28;20113;-65
2021/12/21 09:06:31;;;;;;;55.67;24.25;;;;;;;;;;4994722;28;20062;-65
2021/12/21 09:08:57;;;;;;;61.42;25.95;;;;;;;;;;4994789;28;20066;-65
2021/12/21 09:11:23;;;;;;;55.85;24.77;;;;;;;;;;5009807;28;20125;-65
2021/12/21 09:13:49;;;;;;;62.55;25.95;;;;;;;;;;4992599;28;20073;-65
2021/12/21 09:16:17;;;;;;;56.75;24.38;;;;;;;;;;4994505;28;20037;-65
2021/12/21 09:18:43;;;;;;;55.35;24.98;;;;;;;;;;4998821;28;20106;-65
2021/12/21 09:21:09;;;;;;;56.33;25.33;;;;;;;;;;4992983;28;20076;-65
2021/12/21 09:23:36;;;;;;;49.03;21.98;;;;;;;;;;4993451;28;20034;-65
2021/12/21 09:26:02;;;;;;;51.10;22.75;;;;;;;;;;4994105;28;20026;-65
2021/12/21 09:28:28;;;;;;;48.25;21.73;;;;;;;;;;4993815;28;20038;-65
2021/12/21 09:30:54;;;;;;;50.20;20.73;;;;;;;;;;4994082;28;20505;-64
2021/12/21 09:33:20;;;;;;;62.13;25.60;;;;;;;;;;4994114;28;20050;-65
2021/12/21 09:35:46;;;;;;;52.17;22.98;;;;;;;;;;5010203;28;20049;-65
2021/12/21 09:38:12;;;;;;;46.17;21.25;;;;;;;;;;4994182;28;20407;-65
2021/12/21 09:40:39;;;;;;;57.03;21.92;;;;;;;;;;4993722;28;20426;-65
2021/12/21 09:43:07;;;;;;;50.67;21.50;;;;;;;;;;4991584;28;20030;-65
2021/12/21 09:45:33;;;;;;;49.40;21.65;;;;;;;;;;4995646;28;20409;-65
2021/12/21 09:47:59;;;;;;;51.22;20.75;;;;;;;;;;4993356;28;20026;-65
2021/12/21 09:50:25;;;;;;;48.42;19.70;;;;;;;;;;4993609;28;20362;-65
2021/12/21 09:52:52;;;;;;;43.92;18.70;;;;;;;;;;4992948;28;20026;-65
2021/12/21 09:55:19;;;;;;;47.45;21.40;;;;;;;;;;4993288;28;20034;-65
2021/12/21 09:57:46;;;;;;;48.10;18.50;;;;;;;;;;4993359;28;20026;-65
2021/12/21 10:00:15;;;;;;;49.40;20.30;;;;;;;;;;4994019;28;20022;-65
2021/12/21 10:02:41;;;;;;;43.78;18.80;;;;;;;;;;4993013;28;20117;-65
2021/12/21 10:05:12;;;;;;;44.63;17.75;;;;;;;;;;4994883;28;20046;-66
2021/12/21 10:07:38;;;;;;;46.42;17.88;;;;;;;;;;4993268;28;20113;-66
2021/12/21 10:10:07;;;;;;;42.03;16.63;;;;;;;;;;4992558;28;20030;-66
2021/12/21 10:12:35;;;;;;;42.45;18.13;;;;;;;;;;4992134;28;20037;-66
2021/12/21 10:15:08;;;;;;;41.85;16.88;;;;;;;;;;4993348;28;20030;-66
2021/12/21 10:17:35;;;;;;;42.55;18.05;;;;;;;;;;4990686;28;20364;-66
2021/12/21 10:20:07;;;;;;;43.72;17.15;;;;;;;;;;4993778;28;20076;-66
2021/12/21 10:22:33;;;;;;;44.90;17.73;;;;;;;;;;4993475;28;20034;-66
2021/12/21 10:25:00;;;;;;;36.00;16.83;;;;;;;;;;4993545;28;20308;-66
2021/12/21 10:27:26;;;;;;;40.88;17.35;;;;;;;;;;4991646;28;20089;-66
2021/12/21 10:29:57;;;;;;;37.35;16.13;;;;;;;;;;4993323;28;20085;-65
2021/12/21 10:32:28;;;;;;;41.30;17.30;;;;;;;;;;4989851;28;20121;-65
2021/12/21 10:34:56;;;;;;;49.97;17.40;;;;;;;;;;4988845;28;20085;-66
2021/12/21 10:37:25;;;;;;;40.75;17.55;;;;;;;;;;4991094;28;20026;-66
2021/12/21 10:40:01;;;;;;;45.55;17.55;;;;;;;;;;4989325;28;20034;-66
2021/12/21 10:42:27;;;;;;;33.88;16.50;;;;;;;;;;4991183;28;20022;-66
2021/12/21 10:45:01;;;;;;;39.22;15.77;;;;;;;;;;4991361;28;20076;-66
2021/12/21 10:47:27;;;;;;;37.08;16.38;;;;;;;;;;4991443;28;20033;-66
2021/12/21 10:49:53;;;;;;;39.67;16.45;;;;;;;;;;4991730;28;20050;-66
2021/12/21 10:52:21;;;;;;;38.55;17.92;;;;;;;;;;4990917;28;20355;-66
2021/12/21 10:54:48;;;;;;;36.95;16.27;;;;;;;;;;4988138;28;20101;-66
2021/12/21 10:57:41;;;;;;;39.78;18.10;;;;;;;;;;4991293;28;20042;-66
2021/12/21 11:00:10;;;;;;;46.30;16.23;;;;;;;;;;4989297;28;20108;-66
2021/12/21 11:02:36;;;;;;;37.15;16.33;;;;;;;;;;4992817;28;20062;-67
2021/12/21 11:05:04;;;;;;;35.97;16.27;;;;;;;;;;4993078;28;20061;-67
2021/12/21 11:07:37;;;;;;;38.50;17.48;;;;;;;;;;4992393;28;20038;-67
2021/12/21 11:10:12;;;;;;;36.63;17.08;;;;;;;;;;4992429;28;20038;-67
2021/12/21 11:12:49;;;;;;;39.28;15.75;;;;;;;;;;4991702;28;20096;-67
2021/12/21 11:15:19;;;;;;;36.08;15.48;;;;;;;;;;4988588;28;20121;-67
2021/12/21 11:17:46;;;;;;;35.28;16.65;;;;;;;;;;4990767;28;20034;-67
2021/12/21 11:20:13;;;;;;;33.60;15.50;;;;;;;;;;5003498;28;20030;-67
2021/12/21 11:22:40;;;;;;;40.22;16.20;;;;;;;;;;4991975;28;20027;-67
2021/12/21 11:25:07;;;;;;;38.25;15.65;;;;;;;;;;4991702;28;20037;-67
2021/12/21 11:27:34;;;;;;;36.65;16.23;;;;;;;;;;4992108;28;20030;-67
2021/12/21 11:30:02;;;;;;;33.13;16.55;;;;;;;;;;4992208;28;20038;-66
2021/12/21 11:32:30;;;;;;;35.78;17.45;;;;;;;;;;4990590;28;20041;-65
2021/12/21 11:37:43;;;;;;;33.55;15.27;;;;;;;;;;4988921;28;20066;-65
2021/12/21 11:40:11;;;;;;;38.72;15.73;;;;;;;;;;4991364;28;20030;-66
2021/12/21 11:42:40;;;;;;;30.90;14.20;;;;;;;;;;4988220;28;20030;-65
2021/12/21 11:45:07;;;;;;;38.25;15.43;;;;;;;;;;4991041;28;20081;-65
2021/12/21 11:47:56;;;;;;;27.48;14.02;;;;;;;;;;4989114;28;20037;-65
2021/12/21 11:50:23;;;;;;;28.42;14.57;;;;;;;;;;4976892;28;20465;-66
2021/12/21 11:52:54;;;;;;;29.83;14.02;;;;;;;;;;4990576;28;20035;-66
2021/12/21 11:55:23;;;;;;;30.20;13.55;;;;;;;;;;4992702;28;20034;-65
2021/12/21 11:57:51;;;;;;;32.50;14.48;;;;;;;;;;4990752;28;20061;-66
2021/12/21 12:00:22;;;;;;;32.63;13.77;;;;;;;;;;4991012;28;20051;-66
2021/12/21 12:02:49;;;;;;;28.35;13.90;;;;;;;;;;4992875;28;20034;-66
2021/12/21 12:05:21;;;;;;;32.88;14.48;;;;;;;;;;4992560;28;20023;-66
2021/12/21 12:07:58;;;;;;;30.20;14.32;;;;;;;;;;4997063;28;20026;-66
2021/12/21 12:10:24;;;;;;;34.72;16.92;;;;;;;;;;4998541;28;20041;-65
2021/12/21 12:12:50;;;;;;;29.83;14.27;;;;;;;;;;4998012;28;20430;-66
2021/12/21 12:15:17;;;;;;;37.65;15.35;;;;;;;;;;4997532;28;20478;-66
2021/12/21 12:17:47;;;;;;;29.70;14.38;;;;;;;;;;4997683;28;20027;-66
2021/12/21 12:20:14;;;;;;;32.92;15.13;;;;;;;;;;4997758;28;20038;-66
2021/12/21 12:22:41;;;;;;;31.75;14.55;;;;;;;;;;4997580;28;20030;-66
2021/12/21 12:25:09;;;;;;;37.05;15.77;;;;;;;;;;4997922;28;20504;-65
2021/12/21 12:27:42;;;;;;;25.25;12.38;;;;;;;;;;4995627;28;20026;-65
2021/12/21 12:30:11;;;;;;;33.15;15.30;;;;;;;;;;4996930;28;20125;-65
2021/12/21 12:32:38;;;;;;;32.50;15.13;;;;;;;;;;4994313;28;20109;-65
2021/12/21 12:35:10;;;;;;;32.45;15.15;;;;;;;;;;4997462;28;20042;-65
2021/12/21 12:37:50;;;;;;;32.25;14.77;;;;;;;;;;4997257;28;20026;-65
2021/12/21 12:40:18;;;;;;;28.35;15.43;;;;;;;;;;4997780;28;20034;-65
2021/12/21 12:42:53;;;;;;;34.33;15.00;;;;;;;;;;4995376;28;20048;-65
2021/12/21 12:45:21;;;;;;;38.13;16.13;;;;;;;;;;4994573;28;20046;-65
2021/12/21 12:47:49;;;;;;;33.08;16.40;;;;;;;;;;4995280;28;20025;-64
2021/12/21 12:50:21;;;;;;;33.58;15.52;;;;;;;;;;4998176;28;20073;-65
2021/12/21 12:52:51;;;;;;;35.50;16.10;;;;;;;;;;5000061;28;20026;-64
2021/12/21 12:55:17;;;;;;;32.72;15.05;;;;;;;;;;4997129;28;20022;-64
2021/12/21 12:57:54;;;;;;;33.75;15.02;;;;;;;;;;4996073;28;20022;-64
2021/12/21 13:00:31;;;;;;;31.90;15.32;;;;;;;;;;4997046;28;20034;-64
2021/12/21 13:03:00;;;;;;;33.33;14.63;;;;;;;;;;4999771;28;20026;-64
2021/12/21 13:05:39;;;;;;;31.80;14.65;;;;;;;;;;4994571;28;20030;-64
2021/12/21 13:08:10;;;;;;;30.88;14.65;;;;;;;;;;4995361;28;20483;-65
2021/12/21 13:10:38;;;;;;;34.88;15.60;;;;;;;;;;4995340;28;20114;-65
2021/12/21 13:13:04;;;;;;;27.58;14.05;;;;;;;;;;4989400;28;20049;-65
2021/12/21 13:15:34;;;;;;;34.10;15.80;;;;;;;;;;4997160;28;20034;-64
2021/12/21 13:18:02;;;;;;;38.05;15.23;;;;;;;;;;4995211;28;20109;-65
2021/12/21 13:20:28;;;;;;;31.05;14.52;;;;;;;;;;4993778;28;20022;-64
2021/12/21 13:22:54;;;;;;;29.13;14.80;;;;;;;;;;4994224;28;20034;-64
2021/12/21 13:25:20;;;;;;;31.65;14.82;;;;;;;;;;4993946;28;20023;-64
2021/12/21 13:27:46;;;;;;;31.80;14.93;;;;;;;;;;4991418;28;20027;-64
2021/12/21 13:30:17;;;;;;;34.72;14.98;;;;;;;;;;4987125;28;20034;-64
2021/12/21 13:32:43;;;;;;;31.40;14.88;;;;;;;;;;4990452;28;20061;-64
2021/12/21 13:35:15;;;;;;;34.85;15.15;;;;;;;;;;4988267;28;20062;-65
2021/12/21 13:37:41;;;;;;;29.60;14.95;;;;;;;;;;4990835;28;20518;-64
2021/12/21 13:40:08;;;;;;;29.48;13.63;;;;;;;;;;4990950;28;20406;-65
2021/12/21 13:42:34;;;;;;;27.88;14.10;;;;;;;;;;4990830;28;20494;-64
2021/12/21 13:45:03;;;;;;;29.52;13.57;;;;;;;;;;4993319;28;20022;-64
2021/12/21 13:47:29;;;;;;;29.63;13.85;;;;;;;;;;4992823;28;20026;-65
2021/12/21 13:49:58;;;;;;;31.30;14.20;;;;;;;;;;4993321;28;20030;-64
2021/12/21 13:52:26;;;;;;;31.17;14.13;;;;;;;;;;4989939;28;20027;-65
2021/12/21 13:54:52;;;;;;;32.60;13.55;;;;;;;;;;4991757;28;20041;-65
2021/12/21 13:57:19;;;;;;;31.27;13.95;;;;;;;;;;4989312;28;20540;-65
2021/12/21 13:59:51;;;;;;;33.22;13.63;;;;;;;;;;4988785;28;20080;-65
2021/12/21 14:02:17;;;;;;;;;;;;;;;;;;4992597;28;20118;-65
2021/12/21 14:04:58;;;;;;;27.58;14.13;;;;;;;;;;4993447;28;19997;-65
2021/12/21 14:07:25;;;;;;;37.10;14.93;;;;;;;;;;5008129;28;20084;-65
2021/12/21 14:10:00;;;;;;;26.23;13.02;;;;;;;;;;4993521;28;20057;-65
2021/12/21 14:12:27;;;;;;;29.65;14.30;;;;;;;;;;4992725;28;20042;-65
2021/12/21 14:14:53;;;;;;;28.20;12.77;;;;;;;;;;4993547;28;20110;-65
2021/12/21 14:17:19;;;;;;;27.70;12.52;;;;;;;;;;4993000;28;20032;-65
2021/12/21 14:19:54;;;;;;;29.50;14.05;;;;;;;;;;4993500;28;20033;-65
2021/12/21 14:22:21;;;;;;;31.83;14.65;;;;;;;;;;4993428;28;20026;-65
2021/12/21 14:24:49;;;;;;;30.58;13.45;;;;;;;;;;4993589;28;20026;-65
2021/12/21 14:27:17;;;;;;;28.50;14.70;;;;;;;;;;4990765;28;20073;-65
2021/12/21 14:29:43;;;;;;;27.20;13.02;;;;;;;;;;4993306;28;20482;-65
2021/12/21 14:34:40;;;;;;;29.92;14.00;;;;;;;;;;4993239;28;20038;-65
2021/12/21 14:37:07;;;;;;;31.55;16.00;;;;;;;;;;4993790;28;20033;-65
2021/12/21 14:39:34;;;;;;;33.95;14.18;;;;;;;;;;4993083;28;21376;-65
2021/12/21 14:42:01;;;;;;;30.50;15.30;;;;;;;;;;4993727;28;20019;-65
2021/12/21 14:44:29;;;;;;;33.20;15.13;;;;;;;;;;4993201;28;20037;-65
2021/12/21 14:46:55;;;;;;;35.28;16.00;;;;;;;;;;4993194;28;20109;-65
2021/12/21 14:49:27;;;;;;;32.75;14.13;;;;;;;;;;4993149;28;20113;-65
2021/12/21 14:51:56;;;;;;;33.40;14.80;;;;;;;;;;4993390;28;20065;-65
2021/12/21 14:54:25;;;;;;;38.60;15.32;;;;;;;;;;4990330;28;20026;-65
2021/12/21 14:56:52;;;;;;;35.03;17.13;;;;;;;;;;4982788;28;20114;-64
2021/12/21 14:59:29;;;;;;;31.65;15.52;;;;;;;;;;4974395;28;20395;-64
2021/12/21 15:02:02;;;;;;;35.08;14.38;;;;;;;;;;4979021;28;20105;-64
2021/12/21 15:04:28;;;;;;;34.47;15.43;;;;;;;;;;4979393;28;20164;-64
2021/12/21 15:06:54;;;;;;;36.30;15.45;;;;;;;;;;4979540;28;20110;-64
2021/12/21 15:09:20;;;;;;;36.30;15.65;;;;;;;;;;4985598;28;20529;-64
2021/12/21 15:11:48;;;;;;;26.77;14.50;;;;;;;;;;4979121;28;20460;-64
2021/12/21 15:14:14;;;;;;;35.13;16.73;;;;;;;;;;4981961;28;20042;-64
2021/12/21 15:16:40;;;;;;;35.35;16.60;;;;;;;;;;4974638;28;20042;-64
2021/12/21 15:19:06;;;;;;;31.10;16.90;;;;;;;;;;4978022;28;20023;-64
2021/12/21 15:21:32;;;;;;;34.08;16.30;;;;;;;;;;4981238;28;20050;-64
2021/12/21 15:24:00;;;;;;;34.47;16.98;;;;;;;;;;4980404;28;20609;-64
2021/12/21 15:26:30;;;;;;;36.53;17.65;;;;;;;;;;4986179;28;20038;-64
2021/12/21 15:28:56;;;;;;;34.67;17.23;;;;;;;;;;4988259;28;20383;-64
2021/12/21 15:31:23;;;;;;;35.08;16.60;;;;;;;;;;4980408;28;20042;-64
2021/12/21 15:33:49;;;;;;;41.40;16.42;;;;;;;;;;4978812;28;20405;-64
2021/12/21 15:36:15;;;;;;;44.63;18.35;;;;;;;;;;4976359;28;20053;-64
2021/12/21 15:38:41;;;;;;;32.20;15.00;;;;;;;;;;4978306;28;20494;-64
2021/12/21 15:41:07;;;;;;;36.30;16.52;;;;;;;;;;4973955;28;20030;-64